sensor_id;sensor_type;location;lat;lon;timestamp;P1;durP1;ratioP1;P2;durP2;ratioP2
62798;SDS011;48842;51.046;13.796;2024-01-15T00:01:57;8.37;;;6.07;;
62798;SDS011;48842;51.046;13.796;2024-01-15T00:04:22;8.83;;;6.13;;
62798;SDS011;48842;51.046;13.796;2024-01-15T00:06:48;11.57;;;6.03;;
62798;SDS011;48842;51.046;13.796;2024-01-15T00:09:14;8.30;;;5.25;;
62798;SDS011;48842;51.046;13.796;2024-01-15T00:11:39;7.70;;;5.50;;
62798;SDS011;48842;51.046;13.796;2024-01-15T00:14:05;7.67;;;5.40;;
62798;SDS011;48842;51.046;13.796;2024-01-15T00:16:30;9.83;;;6.50;;
62798;SDS011;48842;51.046;13.796;2024-01-15T00:18:55;9.67;;;6.03;;
62798;SDS011;48842;51.046;13.796;2024-01-15T00:21:20;9.80;;;6.57;;
62798;SDS011;48842;51.046;13.796;2024-01-15T00:23:46;13.03;;;6.73;;
62798;SDS011;48842;51.046;13.796;2024-01-15T00:26:11;6.97;;;5.43;;
62798;SDS011;48842;51.046;13.796;2024-01-15T00:28:37;10.43;;;6.97;;
62798;SDS011;48842;51.046;13.796;2024-01-15T00:31:03;12.10;;;5.67;;
62798;SDS011;48842;51.046;13.796;2024-01-15T00:33:29;7.85;;;6.38;;
62798;SDS011;48842;51.046;13.796;2024-01-15T00:35:54;10.43;;;5.30;;
62798;SDS011;48842;51.046;13.796;2024-01-15T00:38:19;8.97;;;6.30;;
62798;SDS011;48842;51.046;13.796;2024-01-15T00:40:45;10.57;;;5.77;;
62798;SDS011;48842;51.046;13.796;2024-01-15T00:43:10;11.33;;;6.83;;
62798;SDS011;48842;51.046;13.796;2024-01-15T00:45:35;9.13;;;5.60;;
62798;SDS011;48842;51.046;13.796;2024-01-15T00:48:01;10.33;;;5.47;;
62798;SDS011;48842;51.046;13.796;2024-01-15T00:50:26;7.20;;;5.07;;
62798;SDS011;48842;51.046;13.796;2024-01-15T00:52:51;8.10;;;5.83;;
62798;SDS011;48842;51.046;13.796;2024-01-15T00:55:17;9.43;;;6.37;;
62798;SDS011;48842;51.046;13.796;2024-01-15T00:57:42;11.73;;;6.43;;
62798;SDS011;48842;51.046;13.796;2024-01-15T01:00:07;13.60;;;7.80;;
62798;SDS011;48842;51.046;13.796;2024-01-15T01:02:34;7.20;;;5.55;;
62798;SDS011;48842;51.046;13.796;2024-01-15T01:04:59;8.00;;;5.53;;
62798;SDS011;48842;51.046;13.796;2024-01-15T01:07:24;8.60;;;5.80;;
62798;SDS011;48842;51.046;13.796;2024-01-15T01:09:49;11.10;;;6.30;;
62798;SDS011;48842;51.046;13.796;2024-01-15T01:12:16;7.15;;;4.85;;
62798;SDS011;48842;51.046;13.796;2024-01-15T01:14:41;9.57;;;5.53;;
62798;SDS011;48842;51.046;13.796;2024-01-15T01:17:10;8.90;;;6.27;;
62798;SDS011;48842;51.046;13.796;2024-01-15T01:19:35;10.00;;;5.72;;
62798;SDS011;48842;51.046;13.796;2024-01-15T01:22:00;8.80;;;6.57;;
62798;SDS011;48842;51.046;13.796;2024-01-15T01:24:25;9.37;;;6.87;;
62798;SDS011;48842;51.046;13.796;2024-01-15T01:26:51;12.70;;;5.70;;
62798;SDS011;48842;51.046;13.796;2024-01-15T01:29:16;7.27;;;6.37;;
62798;SDS011;48842;51.046;13.796;2024-01-15T01:31:45;9.95;;;6.32;;
62798;SDS011;48842;51.046;13.796;2024-01-15T01:34:13;12.67;;;7.20;;
62798;SDS011;48842;51.046;13.796;2024-01-15T01:36:39;10.80;;;7.00;;
62798;SDS011;48842;51.046;13.796;2024-01-15T01:39:05;10.50;;;6.57;;
62798;SDS011;48842;51.046;13.796;2024-01-15T01:41:30;13.47;;;7.27;;
62798;SDS011;48842;51.046;13.796;2024-01-15T01:43:55;10.97;;;6.23;;
62798;SDS011;48842;51.046;13.796;2024-01-15T01:46:21;11.17;;;5.90;;
62798;SDS011;48842;51.046;13.796;2024-01-15T01:48:47;11.00;;;6.70;;
62798;SDS011;48842;51.046;13.796;2024-01-15T01:51:13;14.70;;;7.40;;
62798;SDS011;48842;51.046;13.796;2024-01-15T01:53:39;10.63;;;7.00;;
62798;SDS011;48842;51.046;13.796;2024-01-15T01:56:05;9.73;;;5.90;;
62798;SDS011;48842;51.046;13.796;2024-01-15T01:58:31;10.98;;;6.97;;
62798;SDS011;48842;51.046;13.796;2024-01-15T02:00:57;9.48;;;6.43;;
62798;SDS011;48842;51.046;13.796;2024-01-15T02:03:24;11.15;;;7.72;;
62798;SDS011;48842;51.046;13.796;2024-01-15T02:05:49;10.20;;;6.73;;
62798;SDS011;48842;51.046;13.796;2024-01-15T02:08:19;8.10;;;6.50;;
62798;SDS011;48842;51.046;13.796;2024-01-15T02:10:44;9.82;;;6.35;;
62798;SDS011;48842;51.046;13.796;2024-01-15T02:13:09;10.10;;;6.27;;
62798;SDS011;48842;51.046;13.796;2024-01-15T02:15:35;9.60;;;6.40;;
62798;SDS011;48842;51.046;13.796;2024-01-15T02:18:00;10.03;;;6.37;;
62798;SDS011;48842;51.046;13.796;2024-01-15T02:20:27;11.15;;;7.38;;
62798;SDS011;48842;51.046;13.796;2024-01-15T02:22:53;10.13;;;5.97;;
62798;SDS011;48842;51.046;13.796;2024-01-15T02:25:19;11.70;;;7.60;;
62798;SDS011;48842;51.046;13.796;2024-01-15T02:27:44;11.60;;;6.83;;
62798;SDS011;48842;51.046;13.796;2024-01-15T02:30:11;13.73;;;8.17;;
62798;SDS011;48842;51.046;13.796;2024-01-15T02:32:37;10.77;;;7.72;;
62798;SDS011;48842;51.046;13.796;2024-01-15T02:35:03;8.88;;;5.50;;
62798;SDS011;48842;51.046;13.796;2024-01-15T02:37:29;10.27;;;6.03;;
62798;SDS011;48842;51.046;13.796;2024-01-15T02:39:54;9.13;;;6.70;;
62798;SDS011;48842;51.046;13.796;2024-01-15T02:42:20;13.67;;;7.60;;
62798;SDS011;48842;51.046;13.796;2024-01-15T02:44:45;11.33;;;7.30;;
62798;SDS011;48842;51.046;13.796;2024-01-15T02:47:10;10.13;;;5.77;;
62798;SDS011;48842;51.046;13.796;2024-01-15T02:49:36;12.73;;;8.00;;
62798;SDS011;48842;51.046;13.796;2024-01-15T02:52:01;9.90;;;6.90;;
62798;SDS011;48842;51.046;13.796;2024-01-15T02:54:28;8.65;;;6.70;;
62798;SDS011;48842;51.046;13.796;2024-01-15T02:56:54;9.17;;;6.10;;
62798;SDS011;48842;51.046;13.796;2024-01-15T02:59:19;11.17;;;7.33;;
62798;SDS011;48842;51.046;13.796;2024-01-15T03:01:44;10.80;;;6.90;;
62798;SDS011;48842;51.046;13.796;2024-01-15T03:04:09;12.37;;;7.97;;
62798;SDS011;48842;51.046;13.796;2024-01-15T03:06:35;10.83;;;6.90;;
62798;SDS011;48842;51.046;13.796;2024-01-15T03:09:00;12.80;;;7.93;;
62798;SDS011;48842;51.046;13.796;2024-01-15T03:11:25;14.13;;;7.80;;
62798;SDS011;48842;51.046;13.796;2024-01-15T03:13:51;9.10;;;7.13;;
62798;SDS011;48842;51.046;13.796;2024-01-15T03:16:16;10.77;;;8.17;;
62798;SDS011;48842;51.046;13.796;2024-01-15T03:18:41;15.27;;;8.27;;
62798;SDS011;48842;51.046;13.796;2024-01-15T03:21:07;11.27;;;7.00;;
62798;SDS011;48842;51.046;13.796;2024-01-15T03:23:32;13.90;;;8.43;;
62798;SDS011;48842;51.046;13.796;2024-01-15T03:26:01;8.63;;;6.17;;
62798;SDS011;48842;51.046;13.796;2024-01-15T03:28:26;12.77;;;7.30;;
62798;SDS011;48842;51.046;13.796;2024-01-15T03:30:51;11.30;;;7.57;;
62798;SDS011;48842;51.046;13.796;2024-01-15T03:33:16;12.80;;;7.83;;
62798;SDS011;48842;51.046;13.796;2024-01-15T03:35:42;13.90;;;7.50;;
62798;SDS011;48842;51.046;13.796;2024-01-15T03:38:07;10.60;;;7.07;;
62798;SDS011;48842;51.046;13.796;2024-01-15T03:40:32;10.60;;;6.87;;
62798;SDS011;48842;51.046;13.796;2024-01-15T03:42:58;14.97;;;7.90;;
62798;SDS011;48842;51.046;13.796;2024-01-15T03:45:23;13.40;;;8.10;;
62798;SDS011;48842;51.046;13.796;2024-01-15T03:47:48;13.13;;;7.40;;
62798;SDS011;48842;51.046;13.796;2024-01-15T03:50:13;13.83;;;9.40;;
62798;SDS011;48842;51.046;13.796;2024-01-15T03:52:39;14.57;;;8.17;;
62798;SDS011;48842;51.046;13.796;2024-01-15T03:55:04;11.40;;;7.30;;
62798;SDS011;48842;51.046;13.796;2024-01-15T03:57:30;14.33;;;8.93;;
62798;SDS011;48842;51.046;13.796;2024-01-15T03:59:55;15.10;;;8.27;;
62798;SDS011;48842;51.046;13.796;2024-01-15T04:02:20;9.50;;;6.70;;
62798;SDS011;48842;51.046;13.796;2024-01-15T04:04:45;12.47;;;7.93;;
62798;SDS011;48842;51.046;13.796;2024-01-15T04:07:11;16.60;;;9.37;;
62798;SDS011;48842;51.046;13.796;2024-01-15T04:09:36;17.27;;;8.93;;
62798;SDS011;48842;51.046;13.796;2024-01-15T04:12:01;11.57;;;7.77;;
62798;SDS011;48842;51.046;13.796;2024-01-15T04:14:26;14.20;;;8.87;;
62798;SDS011;48842;51.046;13.796;2024-01-15T04:16:52;16.10;;;8.60;;
62798;SDS011;48842;51.046;13.796;2024-01-15T04:19:17;17.97;;;8.57;;
62798;SDS011;48842;51.046;13.796;2024-01-15T04:21:42;13.30;;;8.37;;
62798;SDS011;48842;51.046;13.796;2024-01-15T04:24:07;14.10;;;8.00;;
62798;SDS011;48842;51.046;13.796;2024-01-15T04:26:33;13.93;;;8.50;;
62798;SDS011;48842;51.046;13.796;2024-01-15T04:28:58;14.27;;;8.83;;
62798;SDS011;48842;51.046;13.796;2024-01-15T04:31:24;23.03;;;8.97;;
62798;SDS011;48842;51.046;13.796;2024-01-15T04:33:50;16.13;;;8.65;;
62798;SDS011;48842;51.046;13.796;2024-01-15T04:36:15;14.53;;;8.50;;
62798;SDS011;48842;51.046;13.796;2024-01-15T04:38:41;10.63;;;7.23;;
62798;SDS011;48842;51.046;13.796;2024-01-15T04:41:09;12.27;;;8.60;;
62798;SDS011;48842;51.046;13.796;2024-01-15T04:43:36;10.75;;;7.10;;
62798;SDS011;48842;51.046;13.796;2024-01-15T04:46:01;15.53;;;7.90;;
62798;SDS011;48842;51.046;13.796;2024-01-15T04:48:28;14.60;;;7.28;;
62798;SDS011;48842;51.046;13.796;2024-01-15T04:50:53;14.03;;;8.00;;
62798;SDS011;48842;51.046;13.796;2024-01-15T04:53:18;14.40;;;7.73;;
62798;SDS011;48842;51.046;13.796;2024-01-15T04:55:43;11.07;;;7.47;;
62798;SDS011;48842;51.046;13.796;2024-01-15T04:58:09;14.20;;;8.07;;
62798;SDS011;48842;51.046;13.796;2024-01-15T05:00:34;14.47;;;8.53;;
62798;SDS011;48842;51.046;13.796;2024-01-15T05:02:59;18.57;;;8.83;;
62798;SDS011;48842;51.046;13.796;2024-01-15T05:05:24;14.67;;;7.63;;
62798;SDS011;48842;51.046;13.796;2024-01-15T05:07:50;13.73;;;8.20;;
62798;SDS011;48842;51.046;13.796;2024-01-15T05:10:15;13.73;;;8.47;;
62798;SDS011;48842;51.046;13.796;2024-01-15T05:12:40;14.70;;;8.10;;
62798;SDS011;48842;51.046;13.796;2024-01-15T05:15:05;9.90;;;6.50;;
62798;SDS011;48842;51.046;13.796;2024-01-15T05:17:31;12.37;;;8.10;;
62798;SDS011;48842;51.046;13.796;2024-01-15T05:19:56;15.60;;;7.93;;
62798;SDS011;48842;51.046;13.796;2024-01-15T05:22:21;12.63;;;7.47;;
62798;SDS011;48842;51.046;13.796;2024-01-15T05:24:49;15.05;;;8.63;;
62798;SDS011;48842;51.046;13.796;2024-01-15T05:27:14;14.17;;;8.20;;
62798;SDS011;48842;51.046;13.796;2024-01-15T05:29:40;11.30;;;6.70;;
62798;SDS011;48842;51.046;13.796;2024-01-15T05:32:05;11.50;;;7.43;;
62798;SDS011;48842;51.046;13.796;2024-01-15T05:34:30;11.33;;;6.93;;
62798;SDS011;48842;51.046;13.796;2024-01-15T05:36:55;14.17;;;8.07;;
62798;SDS011;48842;51.046;13.796;2024-01-15T05:39:21;15.17;;;8.30;;
62798;SDS011;48842;51.046;13.796;2024-01-15T05:41:46;13.90;;;8.00;;
62798;SDS011;48842;51.046;13.796;2024-01-15T05:44:11;15.77;;;8.50;;
62798;SDS011;48842;51.046;13.796;2024-01-15T05:46:39;11.47;;;7.80;;
62798;SDS011;48842;51.046;13.796;2024-01-15T05:49:05;13.27;;;7.30;;
62798;SDS011;48842;51.046;13.796;2024-01-15T05:51:30;12.70;;;8.30;;
62798;SDS011;48842;51.046;13.796;2024-01-15T05:53:55;16.00;;;7.93;;
62798;SDS011;48842;51.046;13.796;2024-01-15T05:56:20;13.40;;;7.60;;
62798;SDS011;48842;51.046;13.796;2024-01-15T05:58:46;19.40;;;8.40;;
62798;SDS011;48842;51.046;13.796;2024-01-15T06:01:11;13.60;;;8.60;;
62798;SDS011;48842;51.046;13.796;2024-01-15T06:03:36;15.20;;;9.03;;
62798;SDS011;48842;51.046;13.796;2024-01-15T06:06:02;15.30;;;7.40;;
62798;SDS011;48842;51.046;13.796;2024-01-15T06:08:27;13.10;;;8.10;;
62798;SDS011;48842;51.046;13.796;2024-01-15T06:10:53;11.33;;;7.43;;
62798;SDS011;48842;51.046;13.796;2024-01-15T06:13:20;12.18;;;7.45;;
62798;SDS011;48842;51.046;13.796;2024-01-15T06:15:46;11.30;;;7.47;;
62798;SDS011;48842;51.046;13.796;2024-01-15T06:18:12;11.13;;;6.53;;
62798;SDS011;48842;51.046;13.796;2024-01-15T06:20:37;10.00;;;6.90;;
62798;SDS011;48842;51.046;13.796;2024-01-15T06:23:03;9.60;;;6.27;;
62798;SDS011;48842;51.046;13.796;2024-01-15T06:25:29;14.67;;;7.80;;
62798;SDS011;48842;51.046;13.796;2024-01-15T06:27:54;13.10;;;7.53;;
62798;SDS011;48842;51.046;13.796;2024-01-15T06:30:19;7.87;;;5.47;;
62798;SDS011;48842;51.046;13.796;2024-01-15T06:32:44;12.87;;;7.70;;
62798;SDS011;48842;51.046;13.796;2024-01-15T06:35:10;8.80;;;6.40;;
62798;SDS011;48842;51.046;13.796;2024-01-15T06:37:36;9.50;;;5.90;;
62798;SDS011;48842;51.046;13.796;2024-01-15T06:40:01;13.33;;;6.67;;
62798;SDS011;48842;51.046;13.796;2024-01-15T06:42:28;10.77;;;6.68;;
62798;SDS011;48842;51.046;13.796;2024-01-15T06:44:53;8.83;;;5.60;;
62798;SDS011;48842;51.046;13.796;2024-01-15T06:47:18;9.10;;;5.87;;
62798;SDS011;48842;51.046;13.796;2024-01-15T06:49:43;17.20;;;6.50;;
62798;SDS011;48842;51.046;13.796;2024-01-15T06:52:09;12.20;;;7.40;;
62798;SDS011;48842;51.046;13.796;2024-01-15T06:54:34;9.97;;;6.43;;
62798;SDS011;48842;51.046;13.796;2024-01-15T06:56:59;10.27;;;6.27;;
62798;SDS011;48842;51.046;13.796;2024-01-15T06:59:24;9.47;;;6.33;;
62798;SDS011;48842;51.046;13.796;2024-01-15T07:01:50;8.87;;;5.67;;
62798;SDS011;48842;51.046;13.796;2024-01-15T07:04:15;12.30;;;6.40;;
62798;SDS011;48842;51.046;13.796;2024-01-15T07:06:41;8.63;;;5.90;;
62798;SDS011;48842;51.046;13.796;2024-01-15T07:09:06;12.87;;;7.00;;
62798;SDS011;48842;51.046;13.796;2024-01-15T07:11:32;11.60;;;6.22;;
62798;SDS011;48842;51.046;13.796;2024-01-15T07:13:57;10.87;;;6.37;;
62798;SDS011;48842;51.046;13.796;2024-01-15T07:16:23;17.30;;;7.00;;
62798;SDS011;48842;51.046;13.796;2024-01-15T07:18:48;10.03;;;5.73;;
62798;SDS011;48842;51.046;13.796;2024-01-15T07:21:14;9.90;;;5.97;;
62798;SDS011;48842;51.046;13.796;2024-01-15T07:23:39;8.23;;;6.23;;
62798;SDS011;48842;51.046;13.796;2024-01-15T07:26:05;9.13;;;5.77;;
62798;SDS011;48842;51.046;13.796;2024-01-15T07:28:30;7.33;;;5.43;;
62798;SDS011;48842;51.046;13.796;2024-01-15T07:30:56;7.17;;;4.47;;
62798;SDS011;48842;51.046;13.796;2024-01-15T07:33:26;7.72;;;5.53;;
62798;SDS011;48842;51.046;13.796;2024-01-15T07:35:51;10.13;;;7.00;;
62798;SDS011;48842;51.046;13.796;2024-01-15T07:38:17;7.80;;;5.23;;
62798;SDS011;48842;51.046;13.796;2024-01-15T07:40:42;10.70;;;5.57;;
62798;SDS011;48842;51.046;13.796;2024-01-15T07:43:07;9.77;;;5.43;;
62798;SDS011;48842;51.046;13.796;2024-01-15T07:45:33;7.40;;;5.77;;
62798;SDS011;48842;51.046;13.796;2024-01-15T07:47:58;10.53;;;6.10;;
62798;SDS011;48842;51.046;13.796;2024-01-15T07:50:24;9.67;;;5.43;;
62798;SDS011;48842;51.046;13.796;2024-01-15T07:52:49;10.07;;;6.00;;
62798;SDS011;48842;51.046;13.796;2024-01-15T07:55:14;7.43;;;5.90;;
62798;SDS011;48842;51.046;13.796;2024-01-15T07:57:40;9.30;;;5.80;;
62798;SDS011;48842;51.046;13.796;2024-01-15T08:00:05;9.60;;;6.00;;
62798;SDS011;48842;51.046;13.796;2024-01-15T08:02:31;8.47;;;4.93;;
62798;SDS011;48842;51.046;13.796;2024-01-15T08:04:57;8.02;;;5.57;;
62798;SDS011;48842;51.046;13.796;2024-01-15T08:07:23;9.45;;;6.50;;
62798;SDS011;48842;51.046;13.796;2024-01-15T08:09:50;11.60;;;6.82;;
62798;SDS011;48842;51.046;13.796;2024-01-15T08:12:16;10.07;;;6.10;;
62798;SDS011;48842;51.046;13.796;2024-01-15T08:14:41;10.97;;;7.20;;
62798;SDS011;48842;51.046;13.796;2024-01-15T08:17:06;7.47;;;5.57;;
62798;SDS011;48842;51.046;13.796;2024-01-15T08:19:32;9.03;;;6.30;;
62798;SDS011;48842;51.046;13.796;2024-01-15T08:21:57;9.30;;;5.97;;
62798;SDS011;48842;51.046;13.796;2024-01-15T08:24:22;7.93;;;5.27;;
62798;SDS011;48842;51.046;13.796;2024-01-15T08:26:47;12.17;;;6.70;;
62798;SDS011;48842;51.046;13.796;2024-01-15T08:29:13;7.33;;;5.10;;
62798;SDS011;48842;51.046;13.796;2024-01-15T08:31:38;11.70;;;5.83;;
62798;SDS011;48842;51.046;13.796;2024-01-15T08:34:03;9.73;;;6.37;;
62798;SDS011;48842;51.046;13.796;2024-01-15T08:36:29;9.57;;;5.45;;
62798;SDS011;48842;51.046;13.796;2024-01-15T08:38:55;10.75;;;5.57;;
62798;SDS011;48842;51.046;13.796;2024-01-15T08:41:21;8.90;;;5.53;;
62798;SDS011;48842;51.046;13.796;2024-01-15T08:43:46;6.90;;;4.90;;
62798;SDS011;48842;51.046;13.796;2024-01-15T08:46:12;9.47;;;5.90;;
62798;SDS011;48842;51.046;13.796;2024-01-15T08:48:37;6.63;;;5.23;;
62798;SDS011;48842;51.046;13.796;2024-01-15T08:51:02;7.33;;;4.90;;
62798;SDS011;48842;51.046;13.796;2024-01-15T08:53:28;6.93;;;4.70;;
62798;SDS011;48842;51.046;13.796;2024-01-15T08:55:53;4.63;;;3.80;;
62798;SDS011;48842;51.046;13.796;2024-01-15T08:58:19;7.07;;;4.90;;
62798;SDS011;48842;51.046;13.796;2024-01-15T09:00:44;6.10;;;4.30;;
62798;SDS011;48842;51.046;13.796;2024-01-15T09:03:09;7.33;;;4.50;;
62798;SDS011;48842;51.046;13.796;2024-01-15T09:05:35;7.00;;;4.97;;
62798;SDS011;48842;51.046;13.796;2024-01-15T09:08:00;8.03;;;5.07;;
62798;SDS011;48842;51.046;13.796;2024-01-15T09:10:26;7.13;;;4.40;;
62798;SDS011;48842;51.046;13.796;2024-01-15T09:12:51;5.87;;;5.20;;
62798;SDS011;48842;51.046;13.796;2024-01-15T09:15:16;6.30;;;4.47;;
62798;SDS011;48842;51.046;13.796;2024-01-15T09:17:41;7.63;;;5.10;;
62798;SDS011;48842;51.046;13.796;2024-01-15T09:20:08;7.10;;;4.50;;
62798;SDS011;48842;51.046;13.796;2024-01-15T09:22:34;9.73;;;4.97;;
62798;SDS011;48842;51.046;13.796;2024-01-15T09:24:59;7.03;;;4.30;;
62798;SDS011;48842;51.046;13.796;2024-01-15T09:27:24;8.20;;;5.13;;
62798;SDS011;48842;51.046;13.796;2024-01-15T09:29:53;8.65;;;4.10;;
62798;SDS011;48842;51.046;13.796;2024-01-15T09:32:19;5.90;;;4.40;;
62798;SDS011;48842;51.046;13.796;2024-01-15T09:34:47;8.07;;;4.50;;
62798;SDS011;48842;51.046;13.796;2024-01-15T09:37:13;5.90;;;3.95;;
62798;SDS011;48842;51.046;13.796;2024-01-15T09:39:40;8.95;;;4.57;;
62798;SDS011;48842;51.046;13.796;2024-01-15T09:42:05;4.77;;;3.70;;
62798;SDS011;48842;51.046;13.796;2024-01-15T09:44:31;4.38;;;3.83;;
62798;SDS011;48842;51.046;13.796;2024-01-15T09:46:57;5.93;;;3.97;;
62798;SDS011;48842;51.046;13.796;2024-01-15T09:49:23;5.63;;;4.70;;
62798;SDS011;48842;51.046;13.796;2024-01-15T09:51:48;4.57;;;4.17;;
62798;SDS011;48842;51.046;13.796;2024-01-15T09:54:14;7.53;;;4.67;;
62798;SDS011;48842;51.046;13.796;2024-01-15T09:56:42;24.83;;;5.53;;
62798;SDS011;48842;51.046;13.796;2024-01-15T09:59:12;7.88;;;4.90;;
62798;SDS011;48842;51.046;13.796;2024-01-15T10:01:41;4.35;;;3.95;;
62798;SDS011;48842;51.046;13.796;2024-01-15T10:04:09;4.90;;;3.80;;
62798;SDS011;48842;51.046;13.796;2024-01-15T10:06:35;7.30;;;4.05;;
62798;SDS011;48842;51.046;13.796;2024-01-15T10:09:01;5.90;;;3.67;;
62798;SDS011;48842;51.046;13.796;2024-01-15T10:11:28;5.82;;;4.03;;
62798;SDS011;48842;51.046;13.796;2024-01-15T10:13:53;8.00;;;4.03;;
62798;SDS011;48842;51.046;13.796;2024-01-15T10:16:22;9.10;;;4.55;;
62798;SDS011;48842;51.046;13.796;2024-01-15T10:18:48;7.37;;;4.27;;
62798;SDS011;48842;51.046;13.796;2024-01-15T10:21:13;9.40;;;4.95;;
62798;SDS011;48842;51.046;13.796;2024-01-15T10:23:39;5.43;;;3.80;;
62798;SDS011;48842;51.046;13.796;2024-01-15T10:26:04;7.80;;;4.10;;
62798;SDS011;48842;51.046;13.796;2024-01-15T10:28:30;4.20;;;3.80;;
62798;SDS011;48842;51.046;13.796;2024-01-15T10:30:57;6.80;;;4.18;;
62798;SDS011;48842;51.046;13.796;2024-01-15T10:33:24;7.13;;;4.03;;
62798;SDS011;48842;51.046;13.796;2024-01-15T10:35:53;7.38;;;4.20;;
62798;SDS011;48842;51.046;13.796;2024-01-15T10:38:20;7.35;;;4.20;;
62798;SDS011;48842;51.046;13.796;2024-01-15T10:40:47;8.45;;;4.90;;
62798;SDS011;48842;51.046;13.796;2024-01-15T10:43:15;4.60;;;3.50;;
62798;SDS011;48842;51.046;13.796;2024-01-15T10:45:42;8.07;;;3.67;;
62798;SDS011;48842;51.046;13.796;2024-01-15T10:48:11;23.02;;;4.25;;
62798;SDS011;48842;51.046;13.796;2024-01-15T10:50:37;8.57;;;4.37;;
62798;SDS011;48842;51.046;13.796;2024-01-15T10:53:02;5.47;;;4.73;;
62798;SDS011;48842;51.046;13.796;2024-01-15T10:55:29;6.37;;;4.27;;
62798;SDS011;48842;51.046;13.796;2024-01-15T10:57:56;10.07;;;4.05;;
62798;SDS011;48842;51.046;13.796;2024-01-15T11:00:22;4.57;;;3.30;;
62798;SDS011;48842;51.046;13.796;2024-01-15T11:02:47;8.57;;;4.80;;
62798;SDS011;48842;51.046;13.796;2024-01-15T11:05:13;7.30;;;3.43;;
62798;SDS011;48842;51.046;13.796;2024-01-15T11:07:41;4.33;;;3.60;;
62798;SDS011;48842;51.046;13.796;2024-01-15T11:10:07;7.93;;;4.03;;
62798;SDS011;48842;51.046;13.796;2024-01-15T11:12:35;5.55;;;3.63;;
62798;SDS011;48842;51.046;13.796;2024-01-15T11:15:01;5.97;;;3.40;;
62798;SDS011;48842;51.046;13.796;2024-01-15T11:20:30;5.00;;;3.67;;
62798;SDS011;48842;51.046;13.796;2024-01-15T11:22:57;15.48;;;4.28;;
62798;SDS011;48842;51.046;13.796;2024-01-15T11:25:24;9.43;;;3.53;;
62798;SDS011;48842;51.046;13.796;2024-01-15T11:28:00;6.47;;;3.85;;
62798;SDS011;48842;51.046;13.796;2024-01-15T11:30:25;5.47;;;3.60;;
62798;SDS011;48842;51.046;13.796;2024-01-15T11:32:51;8.07;;;4.28;;
62798;SDS011;48842;51.046;13.796;2024-01-15T11:35:16;5.30;;;4.00;;
62798;SDS011;48842;51.046;13.796;2024-01-15T11:40:24;6.93;;;3.90;;
62798;SDS011;48842;51.046;13.796;2024-01-15T11:43:03;7.55;;;4.32;;
62798;SDS011;48842;51.046;13.796;2024-01-15T11:45:29;11.40;;;5.30;;
62798;SDS011;48842;51.046;13.796;2024-01-15T11:48:11;8.63;;;4.57;;
62798;SDS011;48842;51.046;13.796;2024-01-15T11:50:46;7.25;;;4.10;;
62798;SDS011;48842;51.046;13.796;2024-01-15T11:53:16;8.15;;;5.25;;
62798;SDS011;48842;51.046;13.796;2024-01-15T11:55:53;6.97;;;4.47;;
62798;SDS011;48842;51.046;13.796;2024-01-15T11:58:26;8.02;;;4.30;;
62798;SDS011;48842;51.046;13.796;2024-01-15T12:00:52;8.17;;;4.40;;
62798;SDS011;48842;51.046;13.796;2024-01-15T12:03:17;6.70;;;3.53;;
62798;SDS011;48842;51.046;13.796;2024-01-15T12:05:45;8.60;;;3.77;;
62798;SDS011;48842;51.046;13.796;2024-01-15T12:08:11;5.77;;;4.43;;
62798;SDS011;48842;51.046;13.796;2024-01-15T12:10:37;5.47;;;4.37;;
62798;SDS011;48842;51.046;13.796;2024-01-15T12:13:05;6.10;;;3.87;;
62798;SDS011;48842;51.046;13.796;2024-01-15T12:15:34;5.28;;;4.18;;
62798;SDS011;48842;51.046;13.796;2024-01-15T12:18:00;6.70;;;3.90;;
62798;SDS011;48842;51.046;13.796;2024-01-15T12:20:27;8.15;;;4.18;;
62798;SDS011;48842;51.046;13.796;2024-01-15T12:22:56;7.13;;;3.72;;
62798;SDS011;48842;51.046;13.796;2024-01-15T12:25:22;6.03;;;4.17;;
62798;SDS011;48842;51.046;13.796;2024-01-15T12:27:48;6.90;;;4.30;;
62798;SDS011;48842;51.046;13.796;2024-01-15T12:30:13;4.50;;;4.03;;
62798;SDS011;48842;51.046;13.796;2024-01-15T12:32:41;8.33;;;3.50;;
62798;SDS011;48842;51.046;13.796;2024-01-15T12:35:07;5.57;;;4.40;;
62798;SDS011;48842;51.046;13.796;2024-01-15T12:37:35;4.95;;;3.80;;
62798;SDS011;48842;51.046;13.796;2024-01-15T12:40:09;8.82;;;4.72;;
62798;SDS011;48842;51.046;13.796;2024-01-15T12:42:35;6.50;;;4.53;;
62798;SDS011;48842;51.046;13.796;2024-01-15T12:45:10;3.45;;;3.10;;
62798;SDS011;48842;51.046;13.796;2024-01-15T12:47:37;5.30;;;4.10;;
62798;SDS011;48842;51.046;13.796;2024-01-15T12:50:07;8.27;;;5.10;;
62798;SDS011;48842;51.046;13.796;2024-01-15T12:52:34;8.73;;;4.35;;
62798;SDS011;48842;51.046;13.796;2024-01-15T12:54:59;7.87;;;4.33;;
62798;SDS011;48842;51.046;13.796;2024-01-15T12:57:24;6.43;;;4.47;;
62798;SDS011;48842;51.046;13.796;2024-01-15T12:59:50;4.20;;;3.80;;
62798;SDS011;48842;51.046;13.796;2024-01-15T13:02:16;5.30;;;4.80;;
62798;SDS011;48842;51.046;13.796;2024-01-15T13:04:41;10.83;;;4.77;;
62798;SDS011;48842;51.046;13.796;2024-01-15T13:07:07;5.97;;;4.90;;
62798;SDS011;48842;51.046;13.796;2024-01-15T13:09:33;7.97;;;3.93;;
62798;SDS011;48842;51.046;13.796;2024-01-15T13:12:00;7.65;;;5.28;;
62798;SDS011;48842;51.046;13.796;2024-01-15T13:14:26;7.57;;;4.40;;
62798;SDS011;48842;51.046;13.796;2024-01-15T13:16:52;8.47;;;5.57;;
62798;SDS011;48842;51.046;13.796;2024-01-15T13:19:18;7.60;;;4.18;;
62798;SDS011;48842;51.046;13.796;2024-01-15T13:21:44;9.60;;;5.37;;
62798;SDS011;48842;51.046;13.796;2024-01-15T13:24:09;11.07;;;5.10;;
62798;SDS011;48842;51.046;13.796;2024-01-15T13:26:35;5.73;;;4.30;;
62798;SDS011;48842;51.046;13.796;2024-01-15T13:29:03;7.70;;;4.10;;
62798;SDS011;48842;51.046;13.796;2024-01-15T13:31:29;7.77;;;4.47;;
62798;SDS011;48842;51.046;13.796;2024-01-15T13:33:55;5.00;;;4.00;;
62798;SDS011;48842;51.046;13.796;2024-01-15T13:36:21;5.60;;;4.00;;
62798;SDS011;48842;51.046;13.796;2024-01-15T13:38:48;6.83;;;4.30;;
62798;SDS011;48842;51.046;13.796;2024-01-15T13:41:13;5.33;;;4.50;;
62798;SDS011;48842;51.046;13.796;2024-01-15T13:43:40;6.30;;;4.38;;
62798;SDS011;48842;51.046;13.796;2024-01-15T13:46:05;7.77;;;4.70;;
62798;SDS011;48842;51.046;13.796;2024-01-15T13:48:30;7.30;;;5.13;;
62798;SDS011;48842;51.046;13.796;2024-01-15T13:50:57;11.20;;;4.57;;
62798;SDS011;48842;51.046;13.796;2024-01-15T13:53:22;7.03;;;4.40;;
62798;SDS011;48842;51.046;13.796;2024-01-15T13:55:47;9.00;;;5.20;;
62798;SDS011;48842;51.046;13.796;2024-01-15T13:58:12;10.93;;;4.93;;
62798;SDS011;48842;51.046;13.796;2024-01-15T14:00:38;8.40;;;5.50;;
62798;SDS011;48842;51.046;13.796;2024-01-15T14:03:04;8.52;;;5.55;;
62798;SDS011;48842;51.046;13.796;2024-01-15T14:05:30;9.37;;;4.90;;
62798;SDS011;48842;51.046;13.796;2024-01-15T14:07:55;7.97;;;4.97;;
62798;SDS011;48842;51.046;13.796;2024-01-15T14:10:20;10.83;;;5.93;;
62798;SDS011;48842;51.046;13.796;2024-01-15T14:12:45;5.83;;;5.10;;
62798;SDS011;48842;51.046;13.796;2024-01-15T14:15:11;9.13;;;5.10;;
62798;SDS011;48842;51.046;13.796;2024-01-15T14:17:36;5.73;;;5.10;;
62798;SDS011;48842;51.046;13.796;2024-01-15T14:20:02;11.07;;;6.18;;
62798;SDS011;48842;51.046;13.796;2024-01-15T14:22:30;8.32;;;5.57;;
62798;SDS011;48842;51.046;13.796;2024-01-15T14:24:55;7.77;;;4.77;;
62798;SDS011;48842;51.046;13.796;2024-01-15T14:27:20;5.50;;;4.57;;